Time;durP1;ratioP1;P1;durP2;ratioP2;P2;SDS_P1;SDS_P2;PMS_P1;PMS_P2;Temp;Humidity;BMP_temperature;BMP_pressure;BME280_temperature;BME280_humidity;BME280_pressure;Samples;Min_cycle;Max_cycle;Signal;HPM_P1;HPM_P2
2023/03/18 00:01:08;;;;;;;13.80;3.10;;;;;;;;;;110193;1262;22310;-73
2023/03/18 00:03:37;;;;;;;12.10;3.70;;;;;;;;;;110168;1279;22108;-74
2023/03/18 00:06:05;;;;;;;11.50;3.40;;;;;;;;;;110269;1262;22842;-74
2023/03/18 00:08:32;;;;;;;9.90;3.30;;;;;;;;;;110157;1280;22100;-74
2023/03/18 00:10:59;;;;;;;12.30;3.20;;;;;;;;;;110130;1280;22435;-73
2023/03/18 00:13:26;;;;;;;9.50;3.30;;;;;;;;;;110137;1280;22115;-74
2023/03/18 00:15:54;;;;;;;9.30;3.20;;;;;;;;;;110267;1262;22101;-75
2023/03/18 00:18:21;;;;;;;10.60;3.20;;;;;;;;;;110144;1280;22075;-74
2023/03/18 00:20:49;;;;;;;11.00;3.80;;;;;;;;;;110163;1280;22868;-74
2023/03/18 00:23:16;;;;;;;10.80;4.00;;;;;;;;;;110257;1279;22928;-74
2023/03/18 00:25:46;;;;;;;12.30;4.30;;;;;;;;;;110195;1257;22221;-74
2023/03/18 00:28:14;;;;;;;10.70;3.80;;;;;;;;;;110256;1280;22267;-74
2023/03/18 00:30:42;;;;;;;13.20;3.80;;;;;;;;;;110088;1279;22400;-74
2023/03/18 00:33:11;;;;;;;11.20;3.50;;;;;;;;;;110246;1279;22094;-74
2023/03/18 00:35:38;;;;;;;10.50;3.40;;;;;;;;;;110231;1266;22105;-74
2023/03/18 00:38:07;;;;;;;9.30;3.10;;;;;;;;;;110086;1280;22751;-73
2023/03/18 00:40:52;;;;;;;10.70;3.20;;;;;;;;;;110133;1279;22104;-73
2023/03/18 00:43:21;;;;;;;11.00;3.50;;;;;;;;;;110163;1279;22176;-74
2023/03/18 00:45:49;;;;;;;10.60;3.40;;;;;;;;;;110153;1256;22344;-74
2023/03/18 00:48:17;;;;;;;8.60;3.60;;;;;;;;;;110082;1280;22739;-73
2023/03/18 00:50:45;;;;;;;10.50;3.40;;;;;;;;;;110154;1280;22104;-73
2023/03/18 00:53:13;;;;;;;11.20;3.20;;;;;;;;;;110232;1280;21963;-74
2023/03/18 00:55:42;;;;;;;10.30;3.30;;;;;;;;;;110235;1280;22987;-74
2023/03/18 00:58:12;;;;;;;9.80;3.20;;;;;;;;;;110500;1262;22254;-74
2023/03/18 01:00:40;;;;;;;9.00;3.30;;;;;;;;;;110095;1280;22125;-74
2023/03/18 01:03:08;;;;;;;9.90;3.30;;;;;;;;;;110149;1280;22132;-74
2023/03/18 01:05:37;;;;;;;9.70;3.20;;;;;;;;;;110160;1280;22184;-75
2023/03/18 01:08:05;;;;;;;9.70;3.40;;;;;;;;;;110445;1263;22298;-74
2023/03/18 01:10:33;;;;;;;13.30;3.90;;;;;;;;;;110059;1280;22204;-74
2023/03/18 01:13:00;;;;;;;9.30;3.10;;;;;;;;;;110151;1280;23300;-74
2023/03/18 01:15:29;;;;;;;11.50;3.40;;;;;;;;;;110234;1280;22100;-74
2023/03/18 01:17:58;;;;;;;11.70;3.40;;;;;;;;;;110336;1263;22903;-75
2023/03/18 01:20:28;;;;;;;11.70;3.20;;;;;;;;;;110158;1281;22115;-74
2023/03/18 01:22:57;;;;;;;9.10;3.00;;;;;;;;;;110079;1280;22106;-75
2023/03/18 01:25:27;;;;;;;8.90;3.20;;;;;;;;;;110139;1280;22780;-74
2023/03/18 01:27:57;;;;;;;10.90;3.50;;;;;;;;;;110283;1265;22125;-74
2023/03/18 01:30:27;;;;;;;9.60;3.30;;;;;;;;;;110143;1281;22096;-74
2023/03/18 01:32:57;;;;;;;11.30;3.40;;;;;;;;;;110049;1280;22109;-75
2023/03/18 01:35:27;;;;;;;10.90;3.20;;;;;;;;;;110142;1280;22098;-74
2023/03/18 01:37:58;;;;;;;9.90;3.40;;;;;;;;;;110276;1259;22745;-75
2023/03/18 01:40:27;;;;;;;9.70;3.30;;;;;;;;;;110150;1280;22118;-73
2023/03/18 01:42:58;;;;;;;9.20;3.60;;;;;;;;;;110128;1281;22131;-74
2023/03/18 01:45:30;;;;;;;12.30;3.50;;;;;;;;;;110125;1280;22748;-74
2023/03/18 01:48:01;;;;;;;9.50;3.40;;;;;;;;;;110313;1263;22407;-74
2023/03/18 01:50:31;;;;;;;9.30;2.90;;;;;;;;;;110145;1281;22132;-74
2023/03/18 01:53:03;;;;;;;10.80;2.90;;;;;;;;;;110294;1278;22106;-74
2023/03/18 01:55:32;;;;;;;10.80;3.60;;;;;;;;;;110467;1278;22135;-74
2023/03/18 01:58:05;;;;;;;9.60;2.80;;;;;;;;;;110212;1263;22783;-74
2023/03/18 02:00:37;;;;;;;10.20;2.70;;;;;;;;;;110192;1277;22787;-73
2023/03/18 02:03:05;;;;;;;9.30;2.80;;;;;;;;;;110451;1278;22380;-74
2023/03/18 02:05:37;;;;;;;7.90;2.70;;;;;;;;;;110310;1277;22133;-73
2023/03/18 02:08:05;;;;;;;10.10;3.20;;;;;;;;;;110495;1264;22782;-74
2023/03/18 02:10:35;;;;;;;8.80;2.90;;;;;;;;;;110406;1277;22156;-73
2023/03/18 02:13:05;;;;;;;10.70;3.30;;;;;;;;;;110461;1278;21967;-74
2023/03/18 02:22:51;;;;;;;11.40;3.60;;;;;;;;;;104030;1292;544818;-76
2023/03/18 02:25:42;;;;;;;8.50;2.70;;;;;;;;;;106292;1287;22544;-81
2023/03/18 02:28:17;;;;;;;8.90;2.70;;;;;;;;;;106321;1287;22536;-76
2023/03/18 02:30:53;;;;;;;9.10;2.90;;;;;;;;;;106330;1272;22533;-78
2023/03/18 02:33:21;;;;;;;9.20;2.90;;;;;;;;;;105985;1269;22549;-78
2023/03/18 02:35:50;;;;;;;7.00;2.30;;;;;;;;;;104017;1286;2858911;-81
2023/03/18 02:38:20;;;;;;;10.10;2.60;;;;;;;;;;106057;1286;22533;-80
2023/03/18 02:40:53;;;;;;;9.40;2.90;;;;;;;;;;106293;1286;22633;-81
2023/03/18 02:43:26;;;;;;;8.30;2.70;;;;;;;;;;106290;1269;23128;-75
2023/03/18 02:46:24;;;;;;;7.90;2.70;;;;;;;;;;106252;1286;23932;-75
2023/03/18 02:48:52;;;;;;;9.30;2.80;;;;;;;;;;106318;1286;24380;-78
2023/03/18 02:51:22;;;;;;;7.30;2.40;;;;;;;;;;106352;1286;22653;-79
2023/03/18 02:53:49;;;;;;;7.20;2.70;;;;;;;;;;106771;1260;25288;-74
2023/03/18 02:56:28;;;;;;;8.40;3.00;;;;;;;;;;106807;1278;24259;-80
2023/03/18 02:58:56;;;;;;;9.10;2.40;;;;;;;;;;106789;1278;22999;-82
2023/03/18 03:01:26;;;;;;;9.60;2.40;;;;;;;;;;106766;1278;22634;-79
2023/03/18 03:04:02;;;;;;;9.80;2.90;;;;;;;;;;106758;1278;24221;-78
2023/03/18 03:06:29;;;;;;;8.90;3.10;;;;;;;;;;106767;1278;22524;-74
2023/03/18 03:08:57;;;;;;;8.30;2.40;;;;;;;;;;106793;1278;22523;-81
2023/03/18 03:11:44;;;;;;;;;;;;;;;;;;;;;
2023/03/18 03:14:34;;;;;;;8.50;3.10;;;;;;;;;;106785;1259;23294;-78
2023/03/18 03:17:03;;;;;;;9.50;2.70;;;;;;;;;;106700;1279;22566;-82
2023/03/18 03:19:39;;;;;;;9.30;2.70;;;;;;;;;;106799;1279;22523;-76
2023/03/18 03:22:06;;;;;;;9.20;2.80;;;;;;;;;;106682;1279;22775;-75
2023/03/18 03:24:44;;;;;;;9.10;2.60;;;;;;;;;;106688;1261;22516;-78
2023/03/18 03:27:26;;;;;;;8.90;2.60;;;;;;;;;;106796;1279;24245;-74
2023/03/18 03:29:57;;;;;;;10.60;3.00;;;;;;;;;;106802;1279;25418;-81
2023/03/18 03:32:31;;;;;;;11.40;2.90;;;;;;;;;;106694;1279;22522;-74
2023/03/18 03:35:08;;;;;;;8.00;2.70;;;;;;;;;;106718;1261;22536;-81
2023/03/18 03:37:36;;;;;;;9.30;2.90;;;;;;;;;;106746;1279;22652;-77
2023/03/18 03:40:05;;;;;;;10.50;2.90;;;;;;;;;;106652;1279;22526;-75
2023/03/18 03:42:34;;;;;;;9.00;2.70;;;;;;;;;;106763;1279;23792;-76
2023/03/18 03:45:12;;;;;;;7.30;2.40;;;;;;;;;;106971;1279;22530;-77
2023/03/18 03:47:52;;;;;;;;;;;;;;;;;;;;;
2023/03/18 03:50:30;;;;;;;7.70;2.40;;;;;;;;;;106739;1279;25240;-75
2023/03/18 03:52:58;;;;;;;8.40;2.10;;;;;;;;;;106741;1279;24085;-75
2023/03/18 03:55:31;;;;;;;9.20;2.40;;;;;;;;;;106835;1261;24015;-78
2023/03/18 03:57:59;;;;;;;9.70;2.90;;;;;;;;;;106732;1279;26484;-80
2023/03/18 04:00:26;;;;;;;8.60;2.90;;;;;;;;;;106661;1279;24247;-76
2023/03/18 04:03:03;;;;;;;23.70;3.00;;;;;;;;;;106729;1279;24259;-77
2023/03/18 04:05:48;;;;;;;;;;;;;;;;;;;;;
2023/03/18 04:08:22;;;;;;;8.40;2.40;;;;;;;;;;106797;1279;24520;-75
2023/03/18 04:10:49;;;;;;;7.00;2.30;;;;;;;;;;106782;1279;22791;-81
2023/03/18 04:13:24;;;;;;;11.30;3.10;;;;;;;;;;106765;1279;24244;-80
2023/03/18 04:15:53;;;;;;;8.10;3.00;;;;;;;;;;106775;1279;25377;-75
2023/03/18 04:18:20;;;;;;;8.40;3.00;;;;;;;;;;106681;1262;22531;-74
2023/03/18 04:20:48;;;;;;;9.10;2.70;;;;;;;;;;106735;1279;23880;-78
2023/03/18 04:23:32;;;;;;;10.40;3.20;;;;;;;;;;106653;1279;23212;-73
2023/03/18 04:25:59;;;;;;;8.40;2.50;;;;;;;;;;106429;1261;25338;-78
2023/03/18 04:28:47;;;;;;;10.80;2.60;;;;;;;;;;106742;1279;22527;-78
2023/03/18 04:31:15;;;;;;;7.40;2.60;;;;;;;;;;106715;1279;25331;-78
2023/03/18 04:33:58;;;;;;;10.10;2.70;;;;;;;;;;106766;1279;25373;-74
2023/03/18 04:36:28;;;;;;;8.70;3.00;;;;;;;;;;106737;1279;22534;-78
2023/03/18 04:38:56;;;;;;;9.10;2.70;;;;;;;;;;106839;1278;25534;-78
2023/03/18 04:41:26;;;;;;;10.70;2.80;;;;;;;;;;106526;1278;22950;-77
2023/03/18 04:44:02;;;;;;;7.60;2.50;;;;;;;;;;106796;1278;22629;-76
2023/03/18 04:46:39;;;;;;;8.90;3.00;;;;;;;;;;106783;1259;22530;-79
2023/03/18 04:49:28;;;;;;;9.50;3.10;;;;;;;;;;106799;1278;24261;-79
2023/03/18 04:51:57;;;;;;;8.10;2.80;;;;;;;;;;106746;1278;22527;-78
2023/03/18 04:54:32;;;;;;;8.30;2.70;;;;;;;;;;106815;1278;22551;-75
2023/03/18 04:57:07;;;;;;;8.70;2.70;;;;;;;;;;106792;1278;22654;-74
2023/03/18 05:00:09;;;;;;;;;;;;;;;;;;;;;
2023/03/18 05:02:49;;;;;;;10.80;2.90;;;;;;;;;;106774;1278;22524;-78
2023/03/18 05:05:20;;;;;;;10.70;3.00;;;;;;;;;;106804;1259;22608;-81
2023/03/18 05:07:59;;;;;;;8.30;2.70;;;;;;;;;;106780;1278;22483;-81
2023/03/18 05:10:29;;;;;;;8.90;3.40;;;;;;;;;;106801;1278;25340;-80
2023/03/18 05:13:17;;;;;;;9.40;3.30;;;;;;;;;;106820;1278;22588;-81
2023/03/18 05:15:57;;;;;;;;;;;;;;;;;;;;;
2023/03/18 05:18:47;;;;;;;10.90;3.40;;;;;;;;;;106863;1278;24256;-81
2023/03/18 05:21:24;;;;;;;11.90;3.50;;;;;;;;;;106805;1278;23914;-79
2023/03/18 05:23:55;;;;;;;10.70;3.40;;;;;;;;;;106781;1278;22543;-77
2023/03/18 05:26:22;;;;;;;9.60;3.60;;;;;;;;;;106788;1259;22527;-77
2023/03/18 05:28:52;;;;;;;11.80;3.80;;;;;;;;;;106807;1278;22740;-82
2023/03/18 05:31:36;;;;;;;10.30;3.30;;;;;;;;;;106803;1278;22549;-75
2023/03/18 05:34:14;;;;;;;14.90;3.80;;;;;;;;;;106801;1278;25362;-78
2023/03/18 05:36:42;;;;;;;10.70;3.40;;;;;;;;;;106801;1259;24200;-77
2023/03/18 05:39:27;;;;;;;11.30;3.60;;;;;;;;;;106805;1278;24135;-82
2023/03/18 05:41:59;;;;;;;10.00;3.80;;;;;;;;;;106805;1278;22526;-81
2023/03/18 05:44:28;;;;;;;11.00;3.40;;;;;;;;;;106820;1278;22520;-77
2023/03/18 05:46:59;;;;;;;18.70;7.90;;;;;;;;;;106822;1276;22611;-79
2023/03/18 05:49:43;;;;;;;13.40;4.80;;;;;;;;;;106804;1278;22528;-81
2023/03/18 05:52:31;;;;;;;9.40;3.60;;;;;;;;;;106813;1266;22527;-80
2023/03/18 05:55:03;;;;;;;12.40;3.80;;;;;;;;;;106797;1278;25332;-78
2023/03/18 06:03:50;;;;;;;9.90;3.20;;;;;;;;;;106797;1278;22523;-79
2023/03/18 06:06:22;;;;;;;9.50;3.40;;;;;;;;;;106719;1278;24240;-80
2023/03/18 06:09:02;;;;;;;48.00;5.70;;;;;;;;;;106814;1278;22648;-81
2023/03/18 06:11:38;;;;;;;15.00;3.60;;;;;;;;;;106858;1278;22519;-80
2023/03/18 06:14:51;;;;;;;11.30;3.60;;;;;;;;;;106736;1276;22668;-78
2023/03/18 06:17:38;;;;;;;11.50;3.70;;;;;;;;;;106803;1259;22598;-75
2023/03/18 06:20:10;;;;;;;10.50;3.40;;;;;;;;;;106864;1278;25574;-78
2023/03/18 06:22:48;;;;;;;;;;;;;;;;;;;;;
2023/03/18 06:25:28;;;;;;;9.10;3.00;;;;;;;;;;106819;1278;22519;-78
2023/03/18 06:28:08;;;;;;;9.50;3.50;;;;;;;;;;106765;1278;22721;-77
2023/03/18 06:30:36;;;;;;;13.00;3.30;;;;;;;;;;106813;1278;24403;-75
2023/03/18 06:33:05;;;;;;;12.00;3.40;;;;;;;;;;106769;1278;24211;-78
2023/03/18 06:35:42;;;;;;;11.40;3.30;;;;;;;;;;106781;1278;22533;-76
2023/03/18 06:38:13;;;;;;;11.70;4.00;;;;;;;;;;106808;1264;22552;-77
2023/03/18 06:40:44;;;;;;;10.40;3.80;;;;;;;;;;106814;1278;25491;-76
2023/03/18 06:43:11;;;;;;;11.70;3.60;;;;;;;;;;106814;1278;24190;-74
2023/03/18 06:45:41;;;;;;;13.70;3.30;;;;;;;;;;106634;1278;24251;-75
2023/03/18 06:48:39;;;;;;;;;;;;;;;;;;;;;
2023/03/18 06:51:12;;;;;;;10.90;3.60;;;;;;;;;;106710;1278;25438;-79
2023/03/18 06:53:42;;;;;;;8.60;3.20;;;;;;;;;;106416;1278;24222;-74
2023/03/18 06:56:15;;;;;;;11.70;3.80;;;;;;;;;;106501;1278;22527;-76
2023/03/18 06:58:53;;;;;;;10.80;3.70;;;;;;;;;;106649;1264;22510;-77
2023/03/18 07:01:22;;;;;;;14.90;4.00;;;;;;;;;;106782;1278;22553;-79
2023/03/18 07:03:50;;;;;;;10.40;3.80;;;;;;;;;;106753;1278;25356;-76
2023/03/18 07:06:17;;;;;;;11.50;4.10;;;;;;;;;;106685;1278;23468;-75
2023/03/18 07:08:50;;;;;;;10.10;3.80;;;;;;;;;;106304;1262;22527;-75
2023/03/18 07:11:34;;;;;;;9.80;3.60;;;;;;;;;;106666;1278;23883;-74
2023/03/18 07:14:05;;;;;;;14.40;4.00;;;;;;;;;;106607;1278;25357;-75
2023/03/18 07:16:33;;;;;;;12.10;4.00;;;;;;;;;;106732;1278;22527;-77
2023/03/18 07:19:18;;;;;;;10.30;3.70;;;;;;;;;;106751;1278;24227;-81
2023/03/18 07:21:45;;;;;;;11.10;3.70;;;;;;;;;;106742;1278;22537;-73
2023/03/18 07:24:13;;;;;;;11.80;4.10;;;;;;;;;;106774;1278;22628;-80
2023/03/18 07:26:43;;;;;;;11.10;3.50;;;;;;;;;;106792;1278;22523;-76
2023/03/18 07:29:12;;;;;;;13.60;3.90;;;;;;;;;;106834;1260;24180;-80
2023/03/18 07:31:40;;;;;;;13.50;3.70;;;;;;;;;;106725;1278;25384;-80
2023/03/18 07:34:18;;;;;;;;;;;;;;;;;;;;;
2023/03/18 07:36:57;;;;;;;13.60;3.80;;;;;;;;;;107197;1278;25217;-75
2023/03/18 07:39:28;;;;;;;11.70;4.20;;;;;;;;;;106550;1259;25485;-73
2023/03/18 07:41:55;;;;;;;12.10;3.30;;;;;;;;;;106713;1278;24228;-76
2023/03/18 07:44:26;;;;;;;16.40;3.80;;;;;;;;;;106794;1278;24191;-82
2023/03/18 07:46:53;;;;;;;10.70;3.80;;;;;;;;;;106740;1278;22522;-75
2023/03/18 07:49:31;;;;;;;10.20;3.80;;;;;;;;;;106745;1260;25349;-78
2023/03/18 07:52:12;;;;;;;12.30;4.80;;;;;;;;;;106773;1266;22527;-78
2023/03/18 07:54:41;;;;;;;12.30;5.00;;;;;;;;;;106796;1278;22527;-80
2023/03/18 07:57:11;;;;;;;13.50;5.10;;;;;;;;;;106753;1275;25344;-79
2023/03/18 07:59:38;;;;;;;17.20;5.80;;;;;;;;;;106848;1256;22580;-75
2023/03/18 08:02:07;;;;;;;13.10;4.70;;;;;;;;;;106849;1278;22520;-75
2023/03/18 08:04:46;;;;;;;17.20;4.00;;;;;;;;;;106727;1278;25471;-75
2023/03/18 08:07:12;;;;;;;13.60;5.20;;;;;;;;;;106829;1278;22720;-82
2023/03/18 08:09:39;;;;;;;13.30;3.90;;;;;;;;;;106696;1276;24653;-80
2023/03/18 08:12:07;;;;;;;16.40;4.60;;;;;;;;;;106819;1278;24511;-82
2023/03/18 08:14:37;;;;;;;11.60;4.20;;;;;;;;;;106921;1278;24199;-75
2023/03/18 08:17:25;;;;;;;17.40;4.20;;;;;;;;;;106792;1278;22533;-80
2023/03/18 08:19:51;;;;;;;14.00;3.80;;;;;;;;;;106839;1259;22653;-76
2023/03/18 08:22:22;;;;;;;11.70;4.40;;;;;;;;;;106804;1278;23868;-82
2023/03/18 08:25:00;;;;;;;11.70;4.30;;;;;;;;;;106812;1278;24249;-80
2023/03/18 08:27:43;;;;;;;12.80;4.10;;;;;;;;;;106802;1278;25349;-76
2023/03/18 08:30:11;;;;;;;14.30;4.40;;;;;;;;;;106864;1278;24359;-75
2023/03/18 08:32:47;;;;;;;9.60;3.90;;;;;;;;;;106785;1278;22527;-79
2023/03/18 08:35:38;;;;;;;11.30;4.50;;;;;;;;;;106855;1278;22509;-76
2023/03/18 08:38:14;;;;;;;19.30;4.30;;;;;;;;;;106798;1278;24318;-76
2023/03/18 08:40:45;;;;;;;11.80;4.70;;;;;;;;;;106718;1259;23124;-80
2023/03/18 08:43:15;;;;;;;12.20;4.60;;;;;;;;;;106459;1278;22578;-82
2023/03/18 08:46:03;;;;;;;11.60;4.80;;;;;;;;;;106770;1278;22672;-78
2023/03/18 08:48:31;;;;;;;11.80;4.20;;;;;;;;;;106811;1278;22528;-75
2023/03/18 08:50:58;;;;;;;12.50;4.60;;;;;;;;;;106787;1259;22533;-76
2023/03/18 08:53:25;;;;;;;14.40;5.00;;;;;;;;;;106806;1278;25357;-76
2023/03/18 08:55:52;;;;;;;15.00;4.30;;;;;;;;;;106846;1257;24222;-81
2023/03/18 08:58:19;;;;;;;13.80;4.70;;;;;;;;;;106794;1278;22530;-81
2023/03/18 09:00:45;;;;;;;15.20;4.40;;;;;;;;;;106689;1264;24372;-82
2023/03/18 09:03:33;;;;;;;13.00;4.20;;;;;;;;;;106816;1278;22531;-80
2023/03/18 09:06:00;;;;;;;13.00;4.70;;;;;;;;;;106837;1278;25344;-77
2023/03/18 09:08:29;;;;;;;12.90;4.10;;;;;;;;;;106819;1278;24212;-86
2023/03/18 09:10:57;;;;;;;15.50;4.40;;;;;;;;;;106789;1255;24289;-75
2023/03/18 09:13:24;;;;;;;12.50;3.80;;;;;;;;;;106822;1278;24359;-75
2023/03/18 09:15:56;;;;;;;18.70;5.10;;;;;;;;;;106597;1278;24258;-79
2023/03/18 09:18:23;;;;;;;12.40;4.00;;;;;;;;;;106641;1278;25306;-74
2023/03/18 09:20:51;;;;;;;9.50;4.20;;;;;;;;;;106737;1278;25467;-75
2023/03/18 09:23:21;;;;;;;12.60;4.20;;;;;;;;;;106570;1278;24721;-79
2023/03/18 09:25:49;;;;;;;13.00;3.90;;;;;;;;;;106525;1278;22498;-77
2023/03/18 09:28:36;;;;;;;12.90;3.50;;;;;;;;;;106635;1278;25619;-73
2023/03/18 09:31:04;;;;;;;11.70;3.70;;;;;;;;;;106823;1259;24190;-74
2023/03/18 09:33:35;;;;;;;18.00;4.50;;;;;;;;;;106781;1278;25319;-78
2023/03/18 09:36:08;;;;;;;16.10;4.50;;;;;;;;;;106788;1278;22524;-75
2023/03/18 09:38:36;;;;;;;15.40;4.30;;;;;;;;;;106814;1278;22530;-76
2023/03/18 09:41:05;;;;;;;12.10;4.40;;;;;;;;;;106762;1256;22546;-81
2023/03/18 09:43:54;;;;;;;21.10;4.70;;;;;;;;;;106785;1278;22531;-80
2023/03/18 09:46:30;;;;;;;15.70;5.30;;;;;;;;;;106842;1278;22967;-78
2023/03/18 09:49:15;;;;;;;13.50;5.10;;;;;;;;;;106795;1278;23871;-81
2023/03/18 09:52:04;;;;;;;12.00;4.40;;;;;;;;;;106767;1270;23618;-82
2023/03/18 09:54:38;;;;;;;11.60;4.10;;;;;;;;;;106862;1278;22526;-77
2023/03/18 09:57:11;;;;;;;11.70;4.50;;;;;;;;;;106781;1278;22529;-75
2023/03/18 09:59:43;;;;;;;12.50;4.70;;;;;;;;;;106668;1278;22539;-75
2023/03/18 10:02:20;;;;;;;9.40;4.30;;;;;;;;;;106684;1259;22541;-80
2023/03/18 10:04:51;;;;;;;10.30;4.60;;;;;;;;;;107090;1275;22526;-76
2023/03/18 10:07:22;;;;;;;12.10;4.60;;;;;;;;;;106883;1275;22524;-77
2023/03/18 10:10:01;;;;;;;11.10;4.60;;;;;;;;;;107052;1275;23307;-79
2023/03/18 10:12:34;;;;;;;11.80;4.90;;;;;;;;;;107032;1270;25280;-74
2023/03/18 10:15:01;;;;;;;11.50;4.30;;;;;;;;;;107055;1252;22527;-83
2023/03/18 10:17:30;;;;;;;11.70;4.70;;;;;;;;;;106989;1275;24202;-77
2023/03/18 10:19:58;;;;;;;9.70;4.30;;;;;;;;;;107037;1275;22952;-78
2023/03/18 10:22:34;;;;;;;10.90;4.50;;;;;;;;;;106997;1266;24248;-75
2023/03/18 10:25:02;;;;;;;12.40;4.20;;;;;;;;;;107063;1275;22519;-82
2023/03/18 10:27:37;;;;;;;17.90;4.40;;;;;;;;;;107064;1275;24249;-80
2023/03/18 10:30:22;;;;;;;11.90;4.70;;;;;;;;;;106996;1275;22516;-78
2023/03/18 10:32:52;;;;;;;10.50;4.30;;;;;;;;;;107055;1275;25346;-77
2023/03/18 10:35:32;;;;;;;10.70;5.20;;;;;;;;;;107024;1275;24252;-80
2023/03/18 10:38:01;;;;;;;17.10;5.70;;;;;;;;;;107030;1275;24221;-78
2023/03/18 10:40:31;;;;;;;12.00;5.10;;;;;;;;;;107041;1275;22523;-75
2023/03/18 10:42:59;;;;;;;13.70;5.10;;;;;;;;;;106915;1264;24168;-76
2023/03/18 10:45:31;;;;;;;11.40;4.60;;;;;;;;;;106788;1275;22540;-76
2023/03/18 10:48:03;;;;;;;10.70;4.60;;;;;;;;;;106774;1275;25325;-75
2023/03/18 10:50:46;;;;;;;13.10;4.70;;;;;;;;;;106957;1275;25226;-76
2023/03/18 10:53:26;;;;;;;12.60;4.70;;;;;;;;;;106944;1259;24647;-78
2023/03/18 10:56:03;;;;;;;12.30;5.20;;;;;;;;;;106821;1275;22534;-79
2023/03/18 10:58:31;;;;;;;15.90;5.20;;;;;;;;;;107048;1275;23897;-76
2023/03/18 11:00:58;;;;;;;11.70;5.00;;;;;;;;;;106820;1275;25344;-76
2023/03/18 11:04:04;;;;;;;14.40;5.10;;;;;;;;;;106948;1260;22541;-74
2023/03/18 11:06:48;;;;;;;10.50;5.10;;;;;;;;;;106992;1275;22520;-76
2023/03/18 11:09:17;;;;;;;12.30;4.90;;;;;;;;;;106952;1275;23125;-75
2023/03/18 11:11:48;;;;;;;13.90;4.80;;;;;;;;;;106903;1275;24196;-75
2023/03/18 11:14:19;;;;;;;12.00;4.70;;;;;;;;;;106962;1266;22513;-75
2023/03/18 11:16:57;;;;;;;10.60;4.30;;;;;;;;;;106823;1275;25329;-75
2023/03/18 11:19:41;;;;;;;13.20;5.00;;;;;;;;;;106756;1274;22531;-75
2023/03/18 11:22:08;;;;;;;13.50;6.10;;;;;;;;;;106780;1275;23874;-74
2023/03/18 11:24:41;;;;;;;12.70;6.00;;;;;;;;;;110466;1264;22248;-75
2023/03/18 11:27:18;;;;;;;13.70;6.10;;;;;;;;;;110587;1275;22131;-75
2023/03/18 11:29:57;;;;;;;12.40;5.90;;;;;;;;;;110578;1275;22117;-75
2023/03/18 11:32:28;;;;;;;10.20;5.10;;;;;;;;;;110534;1275;21990;-75
2023/03/18 11:34:56;;;;;;;10.90;4.80;;;;;;;;;;110349;1268;22396;-75
2023/03/18 11:37:28;;;;;;;9.90;3.90;;;;;;;;;;110600;1275;22210;-75
2023/03/18 11:40:06;;;;;;;9.70;4.20;;;;;;;;;;110566;1275;22118;-74
2023/03/18 11:42:33;;;;;;;10.40;4.60;;;;;;;;;;110616;1275;22438;-75
2023/03/18 11:45:07;;;;;;;11.20;4.90;;;;;;;;;;110645;1253;22358;-75
2023/03/18 11:47:35;;;;;;;9.70;4.70;;;;;;;;;;110607;1272;22150;-75
2023/03/18 11:50:05;;;;;;;11.70;4.70;;;;;;;;;;110632;1275;22331;-75
2023/03/18 11:52:41;;;;;;;10.10;4.60;;;;;;;;;;110614;1275;22356;-75
2023/03/18 11:55:11;;;;;;;12.00;5.00;;;;;;;;;;110690;1257;22128;-74
2023/03/18 11:57:58;;;;;;;10.00;4.40;;;;;;;;;;110570;1272;22949;-75
2023/03/18 12:00:25;;;;;;;10.90;5.10;;;;;;;;;;110506;1275;22205;-75
2023/03/18 12:03:05;;;;;;;12.80;4.80;;;;;;;;;;110585;1275;22096;-75
2023/03/18 12:05:44;;;;;;;11.90;5.50;;;;;;;;;;110644;1257;22191;-75
2023/03/18 12:08:21;;;;;;;12.30;4.60;;;;;;;;;;110472;1275;22363;-75
2023/03/18 12:11:04;;;;;;;12.20;4.80;;;;;;;;;;110585;1275;22086;-75
2023/03/18 12:13:47;;;;;;;11.80;5.50;;;;;;;;;;110602;1254;23173;-75
2023/03/18 12:16:25;;;;;;;12.70;5.90;;;;;;;;;;110575;1275;22311;-74
2023/03/18 12:18:55;;;;;;;10.20;5.10;;;;;;;;;;110618;1275;22119;-74
2023/03/18 12:21:25;;;;;;;13.00;5.80;;;;;;;;;;110684;1275;22126;-77
2023/03/18 12:24:03;;;;;;;13.10;5.20;;;;;;;;;;110562;1254;23024;-74
2023/03/18 12:26:45;;;;;;;12.10;5.20;;;;;;;;;;110347;1275;22220;-74
2023/03/18 12:29:27;;;;;;;13.00;6.20;;;;;;;;;;110365;1275;22088;-74
2023/03/18 12:32:06;;;;;;;16.00;5.10;;;;;;;;;;110663;1275;22296;-74
2023/03/18 12:34:42;;;;;;;11.20;5.30;;;;;;;;;;110659;1260;22210;-73
2023/03/18 12:37:08;;;;;;;12.30;5.90;;;;;;;;;;110526;1275;22337;-74
2023/03/18 12:39:44;;;;;;;14.50;6.90;;;;;;;;;;110547;1275;22115;-74
2023/03/18 12:42:16;;;;;;;11.80;5.90;;;;;;;;;;110629;1275;22101;-75
2023/03/18 12:44:43;;;;;;;13.80;6.30;;;;;;;;;;110584;1257;22886;-74
2023/03/18 12:47:16;;;;;;;12.70;5.80;;;;;;;;;;110646;1275;22124;-74
2023/03/18 12:49:52;;;;;;;33.20;7.70;;;;;;;;;;110651;1275;21979;-75
2023/03/18 12:52:19;;;;;;;11.50;5.30;;;;;;;;;;110650;1275;22107;-74
2023/03/18 12:54:49;;;;;;;11.30;5.50;;;;;;;;;;110691;1257;22277;-74
2023/03/18 12:57:27;;;;;;;11.20;5.30;;;;;;;;;;110636;1275;22136;-72
2023/03/18 13:00:00;;;;;;;12.30;5.60;;;;;;;;;;110623;1275;22111;-74
2023/03/18 13:02:31;;;;;;;11.50;5.60;;;;;;;;;;110552;1275;22790;-81
2023/03/18 13:04:59;;;;;;;12.40;5.60;;;;;;;;;;110529;1257;22117;-74
2023/03/18 13:07:35;;;;;;;13.40;5.70;;;;;;;;;;110648;1275;22806;-75
2023/03/18 13:10:07;;;;;;;12.50;5.50;;;;;;;;;;110673;1275;21983;-74
2023/03/18 13:12:37;;;;;;;11.60;5.50;;;;;;;;;;110404;1275;22314;-74
2023/03/18 13:15:07;;;;;;;11.60;5.60;;;;;;;;;;110612;1253;22192;-76
2023/03/18 13:17:37;;;;;;;14.10;5.30;;;;;;;;;;110609;1276;21795;-75
2023/03/18 13:20:23;;;;;;;11.90;5.30;;;;;;;;;;110646;1276;22128;-76
2023/03/18 13:23:08;;;;;;;12.10;5.10;;;;;;;;;;110444;1276;22826;-74
2023/03/18 13:25:55;;;;;;;10.20;4.90;;;;;;;;;;110480;1260;22235;-76
2023/03/18 13:28:22;;;;;;;10.30;4.80;;;;;;;;;;110610;1276;22138;-75
2023/03/18 13:30:52;;;;;;;9.50;4.80;;;;;;;;;;110454;1276;22110;-75
2023/03/18 13:33:37;;;;;;;11.70;5.70;;;;;;;;;;110601;1276;22099;-75
2023/03/18 13:36:07;;;;;;;11.40;5.20;;;;;;;;;;110357;1260;22140;-75
2023/03/18 13:38:34;;;;;;;14.30;5.90;;;;;;;;;;110657;1276;22086;-75
2023/03/18 13:41:31;;;;;;;13.10;5.60;;;;;;;;;;110623;1276;21992;-75
2023/03/18 13:43:59;;;;;;;13.30;5.40;;;;;;;;;;110061;1282;22302;-74
2023/03/18 13:46:28;;;;;;;10.50;5.00;;;;;;;;;;110164;1263;22833;-75
2023/03/18 13:49:00;;;;;;;11.40;5.30;;;;;;;;;;110004;1282;22151;-75
2023/03/18 13:51:29;;;;;;;11.30;5.60;;;;;;;;;;110006;1282;22155;-75
2023/03/18 13:53:59;;;;;;;12.40;5.90;;;;;;;;;;110056;1282;23065;-75
2023/03/18 13:56:43;;;;;;;11.90;5.40;;;;;;;;;;110119;1264;22860;-75
2023/03/18 13:59:36;;;;;;;11.40;5.40;;;;;;;;;;110010;1282;22068;-74
2023/03/18 14:02:21;;;;;;;12.40;5.50;;;;;;;;;;110033;1282;22864;-75
2023/03/18 14:04:49;;;;;;;13.00;5.60;;;;;;;;;;110044;1282;22833;-75
2023/03/18 14:07:16;;;;;;;13.90;5.90;;;;;;;;;;110233;1263;22921;-75
2023/03/18 14:09:49;;;;;;;11.40;6.20;;;;;;;;;;110049;1282;22321;-75
2023/03/18 14:12:37;;;;;;;11.30;5.10;;;;;;;;;;110069;1282;22275;-75
2023/03/18 14:15:07;;;;;;;13.50;5.60;;;;;;;;;;110049;1282;22224;-76
2023/03/18 14:17:37;;;;;;;14.30;6.50;;;;;;;;;;110140;1260;22158;-74
2023/03/18 14:20:19;;;;;;;13.80;6.70;;;;;;;;;;110088;1277;22148;-75
2023/03/18 14:22:47;;;;;;;14.90;6.90;;;;;;;;;;110436;1277;22112;-75
2023/03/18 14:25:17;;;;;;;14.90;7.50;;;;;;;;;;110424;1278;22118;-75
2023/03/18 14:28:13;;;;;;;15.10;7.30;;;;;;;;;;110570;1260;22083;-76
2023/03/18 14:30:44;;;;;;;13.80;7.40;;;;;;;;;;110321;1277;22103;-74
2023/03/18 14:33:11;;;;;;;14.90;7.50;;;;;;;;;;110411;1277;22077;-74
2023/03/18 14:35:47;;;;;;;15.30;7.80;;;;;;;;;;108499;1277;2524808;-75
2023/03/18 14:38:19;;;;;;;14.60;7.40;;;;;;;;;;110474;1260;22225;-75
2023/03/18 14:40:48;;;;;;;14.50;6.90;;;;;;;;;;110326;1278;22188;-75
2023/03/18 14:43:18;;;;;;;12.70;6.50;;;;;;;;;;110321;1277;22078;-74
2023/03/18 14:45:48;;;;;;;13.30;6.90;;;;;;;;;;110422;1277;22843;-75
2023/03/18 14:48:17;;;;;;;17.10;7.40;;;;;;;;;;110781;1261;22905;-75
2023/03/18 14:50:46;;;;;;;14.40;6.60;;;;;;;;;;110432;1278;23013;-75
2023/03/18 14:53:16;;;;;;;15.40;6.20;;;;;;;;;;110422;1277;22139;-75
2023/03/18 14:55:43;;;;;;;13.90;6.70;;;;;;;;;;110333;1277;22215;-75
2023/03/18 14:58:44;;;;;;;;;;;;;;;;;;;;;
2023/03/18 15:05:21;;;;;;;18.30;7.50;;;;;;;;;;110069;1281;22885;-74
2023/03/18 15:07:51;;;;;;;16.30;7.90;;;;;;;;;;110009;1263;22142;-75
2023/03/18 15:10:20;;;;;;;18.50;8.50;;;;;;;;;;109899;1281;22239;-74
2023/03/18 15:12:59;;;;;;;17.40;8.00;;;;;;;;;;109974;1281;22891;-75
2023/03/18 15:15:26;;;;;;;15.50;7.20;;;;;;;;;;110028;1282;22437;-75
2023/03/18 15:17:53;;;;;;;15.40;7.20;;;;;;;;;;110035;1264;22388;-75
2023/03/18 15:20:21;;;;;;;16.60;7.60;;;;;;;;;;110037;1282;22101;-75
2023/03/18 15:22:48;;;;;;;17.50;9.70;;;;;;;;;;109960;1282;22149;-75